Time;durP1;ratioP1;P1;durP2;ratioP2;P2;SDS_P1;SDS_P2;PMS_P1;PMS_P2;Temp;Humidity;BMP_temperature;BMP_pressure;BME280_temperature;BME280_humidity;BME280_pressure;Samples;Min_cycle;Max_cycle;Signal;HPM_P1;HPM_P2
2021/03/27 00:01:58;;;;;;;2.63;0.90;;;32.10;60.40;;;;;;5104448;27;20461;-87
2021/03/27 00:04:39;;;;;;;5.32;1.40;;;32.50;63.80;;;;;;5104236;28;20398;-86
2021/03/27 00:07:42;;;;;;;2.20;1.00;;;32.60;58.50;;;;;;5101583;28;20878;-86
2021/03/27 00:10:39;;;;;;;2.42;1.20;;;32.30;61.00;;;;;;5080859;28;20873;-85
2021/03/27 00:13:32;;;;;;;3.45;0.90;;;31.90;54.30;;;;;;5098382;28;20434;-84
2021/03/27 00:16:02;;;;;;;2.10;0.93;;;31.70;61.50;;;;;;5108624;28;20844;-86
2021/03/27 00:19:02;;;;;;;3.75;1.15;;;31.90;56.40;;;;;;5086329;28;20411;-86
2021/03/27 00:21:50;;;;;;;1.83;0.80;;;31.80;57.50;;;;;;5088192;28;20396;-86
2021/03/27 00:24:55;;;;;;;3.33;0.80;;;32.00;58.90;;;;;;5089543;28;20386;-87
2021/03/27 00:27:53;;;;;;;2.67;0.73;;;31.60;52.90;;;;;;5106972;28;20386;-87
2021/03/27 00:30:28;;;;;;;2.42;1.00;;;31.00;51.90;;;;;;5077911;28;20837;-87
2021/03/27 00:33:00;;;;;;;2.60;0.65;;;30.80;56.40;;;;;;5087889;28;20388;-87
2021/03/27 00:35:55;;;;;;;2.25;0.90;;;30.40;52.50;;;;;;5070564;28;20373;-86
2021/03/27 00:38:25;;;;;;;2.70;0.75;;;30.30;62.80;;;;;;5083360;28;20470;-87
2021/03/27 00:40:54;;;;;;;2.40;0.70;;;30.60;53.10;;;;;;5095085;28;20383;-87
2021/03/27 00:43:49;;;;;;;2.80;0.63;;;30.40;53.90;;;;;;5096459;28;20441;-87
2021/03/27 00:46:19;;;;;;;2.25;0.60;;;30.30;58.70;;;;;;5092332;28;20376;-86
2021/03/27 00:48:51;;;;;;;3.45;0.68;;;29.90;55.10;;;;;;5095597;28;20407;-87
2021/03/27 00:51:31;;;;;;;2.53;0.80;;;30.00;57.70;;;;;;5093025;28;20364;-85
2021/03/27 00:54:37;;;;;;;2.03;0.60;;;29.40;54.50;;;;;;5092870;28;20930;-86
2021/03/27 00:57:23;;;;;;;1.95;0.80;;;29.10;57.60;;;;;;5074384;28;20376;-84
2021/03/27 09:26:48;;;;;;;4.97;3.17;;;19.00;99.90;;;;;;4733703;29;1822252;-84
2021/03/27 09:39:52;;;;;;;3.88;2.45;;;19.00;99.90;;;;;;4828034;28;4042725;-88
2021/03/27 09:42:43;;;;;;;4.65;2.28;;;18.90;99.90;;;;;;4969203;28;20426;-89
2021/03/27 09:45:16;;;;;;;7.50;2.38;;;18.90;99.90;;;;;;4972632;28;20757;-89
2021/03/27 09:48:14;;;;;;;6.67;2.43;;;18.90;99.90;;;;;;4958405;28;20497;-88
2021/03/27 09:50:57;;;;;;;5.65;1.90;;;18.90;99.90;;;;;;4951094;28;20889;-86
2021/03/27 09:53:39;;;;;;;3.85;2.20;;;18.90;99.90;;;;;;4963248;28;20853;-89
2021/03/27 09:56:33;;;;;;;4.90;1.88;;;18.90;99.90;;;;;;4957497;28;20479;-89
2021/03/27 09:59:33;;;;;;;4.78;1.95;;;18.90;99.90;;;;;;4958491;28;20398;-90
2021/03/27 10:02:29;;;;;;;5.57;1.80;;;18.90;99.90;;;;;;4954890;28;20448;-87
2021/03/27 10:05:17;;;;;;;5.32;2.00;;;18.90;99.90;;;;;;4951210;28;20395;-85
2021/03/27 10:07:57;;;;;;;5.93;2.00;;;18.90;99.90;;;;;;4963937;28;20404;-84
2021/03/27 10:10:51;;;;;;;5.50;1.80;;;18.80;99.90;;;;;;4963375;28;20399;-84
2021/03/27 10:13:39;;;;;;;3.50;1.75;;;18.80;99.90;;;;;;4945264;28;20415;-85
2021/03/27 10:16:15;;;;;;;2.58;1.70;;;18.80;99.90;;;;;;5033934;28;20462;-85
2021/03/27 10:19:06;;;;;;;4.10;1.40;;;18.90;99.90;;;;;;5108474;28;20881;-86
2021/03/27 10:21:33;;;;;;;2.88;1.38;;;18.90;99.90;;;;;;5099479;28;20465;-86
2021/03/27 10:24:13;;;;;;;3.67;1.60;;;18.90;99.90;;;;;;5110355;28;20431;-84
2021/03/27 10:27:10;;;;;;;4.43;1.77;;;18.90;99.90;;;;;;5128918;28;20426;-85
2021/03/27 10:29:52;;;;;;;3.30;1.65;;;18.90;99.90;;;;;;5129441;28;20406;-85
2021/03/27 10:32:31;;;;;;;5.30;2.03;;;18.90;99.90;;;;;;5128897;28;20760;-86
2021/03/27 10:35:03;;;;;;;2.45;1.40;;;18.90;99.90;;;;;;5124865;28;20498;-85
2021/03/27 10:37:54;;;;;;;3.97;1.60;;;18.90;99.90;;;;;;5102133;28;20469;-85
2021/03/27 10:40:42;;;;;;;2.92;1.30;;;18.90;99.90;;;;;;5124247;27;20409;-84
2021/03/27 10:43:36;;;;;;;4.78;1.70;;;18.90;99.90;;;;;;5100568;28;20413;-86
2021/03/27 10:46:21;;;;;;;4.55;1.33;;;18.90;99.90;;;;;;5101667;28;20404;-86
2021/03/27 10:49:06;;;;;;;4.00;1.30;;;18.80;99.90;;;;;;5106550;28;20390;-85
2021/03/27 10:52:03;;;;;;;4.90;1.48;;;18.70;99.90;;;;;;5095411;28;20386;-87
2021/03/27 10:55:04;;;;;;;3.15;1.30;;;18.60;99.90;;;;;;5105077;28;20529;-85
2021/03/27 10:57:44;;;;;;;2.73;1.40;;;18.50;99.90;;;;;;5091712;28;20389;-85
2021/03/27 11:00:42;;;;;;;3.45;1.33;;;18.50;99.90;;;;;;5112127;28;20409;-85
2021/03/27 11:03:39;;;;;;;5.50;1.50;;;18.50;99.90;;;;;;5110253;28;21126;-86
2021/03/27 11:06:09;;;;;;;4.68;1.50;;;18.60;99.90;;;;;;5093386;28;20787;-86
2021/03/27 11:09:01;;;;;;;3.35;1.58;;;18.60;99.90;;;;;;5111419;28;20383;-85
2021/03/27 11:11:34;;;;;;;2.80;1.55;;;18.60;99.90;;;;;;5109399;28;20384;-86
2021/03/27 11:14:12;;;;;;;3.72;1.50;;;18.50;99.90;;;;;;5092773;28;20462;-86
2021/03/27 11:17:00;;;;;;;5.00;1.50;;;18.50;99.90;;;;;;5104426;28;20430;-85
2021/03/27 11:19:48;;;;;;;1.93;1.30;;;18.60;99.90;;;;;;5110858;28;20552;-85
2021/03/27 11:22:30;;;;;;;4.05;1.67;;;18.60;99.90;;;;;;5113244;28;20382;-84
2021/03/27 11:25:37;;;;;;;2.78;1.70;;;18.50;99.90;;;;;;5111597;28;20473;-85
2021/03/27 11:28:39;;;;;;;3.55;1.60;;;18.50;99.90;;;;;;5104536;28;20396;-87
2021/03/27 11:31:13;;;;;;;4.68;1.63;;;18.30;99.90;;;;;;5100302;28;20938;-85
2021/03/27 11:34:01;;;;;;;6.00;1.48;;;18.20;99.90;;;;;;5107875;28;20436;-86
2021/03/27 11:37:02;;;;;;;4.40;1.35;;;18.10;99.90;;;;;;5107222;28;20401;-85
2021/03/27 11:39:48;;;;;;;3.63;1.33;;;18.10;99.90;;;;;;5090492;28;20395;-84
2021/03/27 11:42:52;;;;;;;3.17;1.42;;;18.10;99.90;;;;;;5110674;28;20391;-85
2021/03/27 11:45:44;;;;;;;4.28;1.33;;;18.00;99.90;;;;;;5095844;28;20894;-84
2021/03/27 11:48:22;;;;;;;2.50;1.27;;;18.00;99.90;;;;;;5091913;28;20469;-85
2021/03/27 11:51:05;;;;;;;2.17;1.23;;;17.90;99.90;;;;;;5110419;28;20413;-84
2021/03/27 11:53:40;;;;;;;2.80;1.10;;;17.90;99.90;;;;;;5108252;28;20414;-84
2021/03/27 11:56:37;;;;;;;4.38;1.23;;;17.90;99.90;;;;;;5108821;28;20410;-84
2021/03/27 12:02:44;;;;;;;2.42;1.35;;;18.00;99.90;;;;;;5110703;28;21436;-84
2021/03/27 12:05:24;;;;;;;2.53;1.17;;;18.10;99.90;;;;;;5093549;28;21059;-86
2021/03/27 12:08:31;;;;;;;4.53;1.30;;;18.10;99.90;;;;;;5109216;28;20429;-85
2021/03/27 12:11:09;;;;;;;1.52;1.00;;;18.20;99.90;;;;;;5070834;28;20968;-85
2021/03/27 12:14:11;;;;;;;2.40;1.00;;;18.20;99.90;;;;;;5105473;27;20406;-85
2021/03/27 12:16:49;;;;;;;4.45;0.90;;;18.20;99.90;;;;;;5104238;28;20487;-85
2021/03/27 12:20:02;;;;;;;6.28;1.00;;;18.30;99.90;;;;;;5102894;28;20387;-84
2021/03/27 12:22:43;;;;;;;3.70;1.00;;;18.30;99.90;;;;;;5010051;28;20492;-85
2021/03/27 12:25:47;;;;;;;3.10;0.90;;;18.50;99.90;;;;;;5016144;28;20406;-84
2021/03/27 12:28:26;;;;;;;1.60;0.80;;;18.50;99.90;;;;;;5055301;28;20402;-85
2021/03/27 12:31:05;;;;;;;1.98;0.80;;;18.50;99.90;;;;;;5117717;28;20386;-86
2021/03/27 12:33:58;;;;;;;3.33;0.90;;;18.50;99.90;;;;;;5095569;28;20519;-85
2021/03/27 12:36:34;;;;;;;2.60;1.07;;;18.40;99.90;;;;;;5112351;28;20412;-85
2021/03/27 12:39:26;;;;;;;3.42;0.77;;;18.40;99.90;;;;;;5118998;28;20582;-87
2021/03/27 12:42:26;;;;;;;2.47;1.00;;;18.40;99.90;;;;;;5117644;28;20395;-84
2021/03/27 12:45:18;;;;;;;4.22;1.00;;;18.30;99.90;;;;;;5095223;28;20411;-86
2021/03/27 12:48:17;;;;;;;3.35;0.70;;;18.30;99.90;;;;;;5118196;28;20413;-83
2021/03/27 12:51:09;;;;;;;3.55;1.00;;;18.20;99.90;;;;;;5113522;27;20390;-84
2021/03/27 12:54:06;;;;;;;2.40;0.80;;;18.10;99.90;;;;;;5112807;28;20386;-86
2021/03/27 12:56:44;;;;;;;3.20;0.80;;;18.00;99.90;;;;;;5094704;28;20422;-85
2021/03/27 12:59:38;;;;;;;1.70;0.70;;;18.10;99.90;;;;;;5107719;28;20577;-86
2021/03/27 13:02:51;;;;;;;1.70;0.57;;;18.10;99.90;;;;;;5107610;28;20403;-85
2021/03/27 13:05:18;;;;;;;2.05;0.70;;;18.10;99.90;;;;;;5005819;28;20408;-85
2021/03/27 13:07:48;;;;;;;2.78;1.10;;;18.10;99.90;;;;;;5096642;28;20387;-85
2021/03/27 13:10:38;;;;;;;4.43;0.90;;;18.00;99.90;;;;;;5099825;28;20400;-85
2021/03/27 13:13:24;;;;;;;3.47;0.93;;;18.00;99.90;;;;;;5103408;28;20385;-84
2021/03/27 13:16:06;;;;;;;2.40;0.90;;;17.90;99.90;;;;;;5106155;28;20409;-84
2021/03/27 13:19:07;;;;;;;4.32;1.00;;;17.70;99.90;;;;;;5108380;28;20980;-85
2021/03/27 13:22:01;;;;;;;2.15;0.75;;;17.60;99.90;;;;;;5104923;28;20440;-85
2021/03/27 13:24:34;;;;;;;4.70;0.82;;;17.40;99.90;;;;;;5103575;28;20844;-84
2021/03/27 13:27:13;;;;;;;1.50;0.67;;;17.30;99.90;;;;;;5088981;28;20420;-84
2021/03/27 13:29:43;;;;;;;1.83;0.90;;;17.10;99.90;;;;;;5102923;28;20391;-84
2021/03/27 13:32:21;;;;;;;2.42;0.98;;;17.00;99.90;;;;;;5099926;28;20399;-84
2021/03/27 13:35:16;;;;;;;1.77;0.80;;;16.90;99.90;;;;;;5101123;28;20402;-85
2021/03/27 13:38:04;;;;;;;4.93;1.38;;;16.90;99.90;;;;;;5104991;28;20393;-85
2021/03/27 13:40:36;;;;;;;3.42;1.02;;;16.90;99.90;;;;;;5104797;28;20836;-84
2021/03/27 13:43:33;;;;;;;2.50;0.90;;;17.00;99.90;;;;;;5087626;28;20761;-84
2021/03/27 13:46:55;;;;;;;5.07;1.20;;;17.00;99.90;;;;;;5105319;28;20379;-83
2021/03/27 13:49:27;;;;;;;3.60;1.20;;;17.20;99.90;;;;;;5047151;28;20394;-85
2021/03/27 13:52:00;;;;;;;3.30;1.30;;;17.30;99.90;;;;;;5105269;28;20401;-84
2021/03/27 13:54:51;;;;;;;3.03;0.98;;;17.40;99.90;;;;;;5103281;28;20405;-85
2021/03/27 13:57:30;;;;;;;5.97;1.57;;;17.40;99.90;;;;;;5103425;28;20402;-85
2021/03/27 14:00:27;;;;;;;1.55;1.08;;;17.50;99.90;;;;;;5105275;28;20443;-84
2021/03/27 14:03:15;;;;;;;3.03;1.10;;;17.50;99.90;;;;;;5103735;28;20414;-84
2021/03/27 14:06:17;;;;;;;2.38;0.98;;;17.50;99.90;;;;;;5100235;28;20390;-84
2021/03/27 14:09:09;;;;;;;3.37;1.07;;;17.40;99.90;;;;;;5104017;28;20454;-84
2021/03/27 14:12:07;;;;;;;5.40;1.17;;;17.30;99.90;;;;;;5105307;28;20387;-84
2021/03/27 14:14:43;;;;;;;5.57;1.23;;;17.10;99.90;;;;;;5083262;28;20494;-84
2021/03/27 14:17:42;;;;;;;3.78;1.30;;;17.10;99.90;;;;;;5100401;28;20422;-84
2021/03/27 14:20:18;;;;;;;3.55;1.48;;;17.00;99.90;;;;;;5042407;28;20410;-85
2021/03/27 14:23:20;;;;;;;5.05;1.27;;;16.90;99.90;;;;;;5104978;28;20738;-84
2021/03/27 14:26:24;;;;;;;2.63;1.00;;;16.80;99.90;;;;;;5089469;28;20422;-84
2021/03/27 14:29:19;;;;;;;2.57;0.93;;;16.70;99.90;;;;;;5088429;28;20454;-84
2021/03/27 14:31:53;;;;;;;3.47;1.10;;;16.60;99.90;;;;;;5108670;28;20481;-85
2021/03/27 14:34:40;;;;;;;3.70;0.80;;;16.60;99.90;;;;;;5106132;28;20437;-85
2021/03/27 14:37:07;;;;;;;3.17;0.57;;;16.60;99.90;;;;;;5109585;28;20382;-84
2021/03/27 14:39:50;;;;;;;2.83;0.70;;;16.60;99.90;;;;;;5092244;28;20861;-85
2021/03/27 14:42:39;;;;;;;4.03;0.80;;;16.80;99.90;;;;;;5109912;28;20486;-85
2021/03/27 14:45:20;;;;;;;2.03;0.82;;;16.90;99.90;;;;;;5100813;28;20386;-85
2021/03/27 14:48:00;;;;;;;2.13;0.52;;;17.00;99.90;;;;;;5092718;28;20435;-85
2021/03/27 14:50:44;;;;;;;1.35;0.90;;;17.10;99.90;;;;;;5107489;28;20386;-85
2021/03/27 14:53:23;;;;;;;4.97;0.68;;;17.20;99.90;;;;;;5110945;28;20482;-84
2021/03/27 14:55:59;;;;;;;1.27;0.60;;;17.20;99.90;;;;;;5104220;28;20453;-84
2021/03/27 14:58:42;;;;;;;2.90;0.70;;;17.30;99.90;;;;;;5099179;28;20746;-85
2021/03/27 15:01:18;;;;;;;1.50;0.82;;;17.40;99.90;;;;;;5109372;28;20386;-84
2021/03/27 15:03:47;;;;;;;2.57;0.67;;;17.50;99.90;;;;;;5108393;27;20387;-84
2021/03/27 15:06:17;;;;;;;2.47;0.95;;;17.50;99.90;;;;;;5103814;27;20399;-83
2021/03/27 15:08:53;;;;;;;4.00;0.80;;;17.60;99.90;;;;;;5107112;28;20475;-85
2021/03/27 15:11:41;;;;;;;2.42;0.90;;;17.60;99.90;;;;;;5092813;28;20527;-85
2021/03/27 15:14:25;;;;;;;2.78;1.05;;;17.60;99.90;;;;;;5086066;28;20903;-85
2021/03/27 15:17:00;;;;;;;4.47;1.02;;;17.60;99.90;;;;;;5103046;27;20418;-84
2021/03/27 15:19:49;;;;;;;3.60;1.48;;;17.60;99.90;;;;;;5111019;28;20701;-84
2021/03/27 15:22:44;;;;;;;1.98;1.40;;;17.60;99.90;;;;;;5110638;28;20422;-85
2021/03/27 15:28:23;;;;;;;3.90;1.70;;;17.30;99.90;;;;;;5108259;28;20446;-83
2021/03/27 15:31:15;;;;;;;5.35;1.23;;;17.20;99.90;;;;;;5106617;28;20420;-84
2021/03/27 15:34:08;;;;;;;3.90;1.40;;;17.10;99.90;;;;;;5104748;28;20761;-84
2021/03/27 15:36:56;;;;;;;3.75;1.20;;;17.00;99.90;;;;;;5108311;28;20406;-84
2021/03/27 15:39:57;;;;;;;7.32;1.40;;;16.90;99.90;;;;;;5106779;28;20391;-84
2021/03/27 15:42:45;;;;;;;3.28;1.42;;;16.90;99.90;;;;;;5102946;28;20406;-84
2021/03/27 15:45:39;;;;;;;3.40;1.52;;;16.90;99.90;;;;;;5090579;28;20391;-84
2021/03/27 15:48:38;;;;;;;3.70;1.13;;;16.90;99.90;;;;;;5107596;28;20382;-84
2021/03/27 15:51:20;;;;;;;2.90;1.35;;;16.70;99.90;;;;;;5103036;28;20403;-84
2021/03/27 15:54:16;;;;;;;2.53;1.15;;;16.70;99.90;;;;;;5110967;28;20370;-84
2021/03/27 15:56:53;;;;;;;3.03;1.30;;;16.60;99.90;;;;;;5101802;28;20506;-83
2021/03/27 15:59:20;;;;;;;4.60;1.30;;;16.50;99.90;;;;;;5107084;27;20391;-84
2021/03/27 16:02:16;;;;;;;2.80;1.20;;;16.50;99.90;;;;;;5105502;28;20425;-84
2021/03/27 16:04:56;;;;;;;2.35;1.02;;;16.40;99.90;;;;;;5106632;28;20414;-84
2021/03/27 16:07:37;;;;;;;3.37;1.00;;;16.40;99.90;;;;;;5107786;28;20466;-84
2021/03/27 16:10:20;;;;;;;1.70;1.30;;;16.40;99.90;;;;;;5108353;28;20391;-84
2021/03/27 16:13:04;;;;;;;2.28;0.80;;;16.50;99.90;;;;;;5110120;28;20382;-84
2021/03/27 16:15:50;;;;;;;5.15;1.00;;;16.50;99.90;;;;;;5100094;27;20413;-84
2021/03/27 16:18:37;;;;;;;4.10;0.93;;;16.50;99.90;;;;;;5081491;28;20395;-84
2021/03/27 16:21:10;;;;;;;1.13;0.75;;;16.60;99.90;;;;;;5100335;28;20407;-84
2021/03/27 16:23:44;;;;;;;1.38;0.80;;;16.60;99.90;;;;;;5108101;28;20422;-84
2021/03/27 16:26:36;;;;;;;3.72;0.70;;;16.60;99.90;;;;;;5105937;28;20394;-84
2021/03/27 16:29:44;;;;;;;2.67;0.70;;;16.70;99.90;;;;;;5103439;28;20422;-85
2021/03/27 16:32:14;;;;;;;3.33;0.75;;;16.70;99.90;;;;;;5081944;28;20387;-84
2021/03/27 16:35:05;;;;;;;2.35;0.70;;;16.80;99.90;;;;;;5103771;28;20400;-84
2021/03/27 16:37:48;;;;;;;3.22;0.63;;;16.70;99.90;;;;;;5105560;28;20478;-84
2021/03/27 16:40:15;;;;;;;2.17;0.60;;;16.70;99.90;;;;;;5081155;28;20398;-84
2021/03/27 16:43:07;;;;;;;3.50;0.60;;;16.70;99.90;;;;;;5087914;28;20396;-84
2021/03/27 16:46:10;;;;;;;1.65;0.60;;;16.70;99.90;;;;;;5102616;28;20394;-84
2021/03/27 16:48:49;;;;;;;3.90;0.70;;;16.70;99.90;;;;;;5095518;28;20858;-84
2021/03/27 16:51:41;;;;;;;1.33;0.60;;;16.60;99.90;;;;;;5108960;28;20425;-84
2021/03/27 16:54:59;;;;;;;1.90;0.60;;;16.50;99.90;;;;;;5107162;28;20414;-84
2021/03/27 16:58:00;;;;;;;5.25;1.15;;;16.40;99.90;;;;;;5080966;28;20445;-84
2021/03/27 17:01:07;;;;;;;3.35;0.98;;;16.40;99.90;;;;;;5082650;28;20392;-84
2021/03/27 17:03:41;;;;;;;3.72;0.75;;;16.30;99.90;;;;;;5003213;28;20399;-83
2021/03/27 17:06:22;;;;;;;1.00;0.60;;;16.30;99.90;;;;;;5092529;28;20394;-84
2021/03/27 17:08:48;;;;;;;3.30;0.80;;;16.20;99.90;;;;;;5106625;28;20401;-84
2021/03/27 17:11:21;;;;;;;2.30;0.63;;;16.10;99.90;;;;;;5105547;28;20382;-84
2021/03/27 17:14:11;;;;;;;2.95;0.65;;;16.10;99.90;;;;;;5109465;28;20791;-84
2021/03/27 17:17:30;;;;;;;2.67;0.63;;;16.00;99.90;;;;;;5091543;28;20429;-84
2021/03/27 17:20:08;;;;;;;1.65;0.45;;;15.90;99.90;;;;;;5060829;28;20473;-84
2021/03/27 17:23:02;;;;;;;3.60;0.57;;;15.90;99.90;;;;;;5106783;28;20459;-84
2021/03/27 17:25:39;;;;;;;2.95;0.70;;;15.80;99.90;;;;;;5097961;28;20474;-84
2021/03/27 17:28:48;;;;;;;1.87;0.60;;;15.80;99.90;;;;;;5104474;28;20396;-83
2021/03/27 17:31:15;;;;;;;1.42;0.60;;;15.70;99.90;;;;;;5080530;28;20463;-83
2021/03/27 17:34:12;;;;;;;2.47;0.57;;;15.70;99.90;;;;;;5108836;28;20383;-84
2021/03/27 17:37:09;;;;;;;1.30;0.52;;;15.70;99.90;;;;;;5105069;28;20394;-83
2021/03/27 17:39:45;;;;;;;2.58;0.50;;;15.70;99.90;;;;;;5105738;28;20398;-82
2021/03/27 17:42:41;;;;;;;1.70;0.70;;;15.60;99.90;;;;;;5089361;28;20386;-82
2021/03/27 17:45:47;;;;;;;2.47;0.63;;;15.70;99.90;;;;;;5097285;28;20469;-84
2021/03/27 17:48:29;;;;;;;1.10;0.40;;;15.70;99.90;;;;;;5065420;28;20477;-82
2021/03/27 17:51:09;;;;;;;1.25;0.47;;;15.70;99.90;;;;;;5051926;28;20398;-83
2021/03/27 17:53:43;;;;;;;2.03;0.63;;;15.70;99.90;;;;;;5092200;28;20460;-83
2021/03/27 17:56:22;;;;;;;3.83;0.90;;;15.70;99.90;;;;;;5091769;28;20430;-83
2021/03/27 17:59:01;;;;;;;3.13;0.60;;;15.70;99.90;;;;;;5110539;28;20379;-83
2021/03/27 18:01:53;;;;;;;1.83;0.60;;;15.70;99.90;;;;;;5113651;28;20485;-83
2021/03/27 18:04:26;;;;;;;1.05;0.50;;;15.70;99.90;;;;;;5093126;28;20380;-83
2021/03/27 18:07:20;;;;;;;1.90;0.50;;;15.70;99.90;;;;;;5102256;28;20418;-83
2021/03/27 18:09:55;;;;;;;2.53;0.60;;;15.60;99.90;;;;;;5083629;28;20386;-83
2021/03/27 18:12:26;;;;;;;2.33;0.60;;;15.60;99.90;;;;;;5090558;28;20756;-83
2021/03/27 18:15:37;;;;;;;3.63;0.63;;;15.60;99.90;;;;;;5107121;28;20406;-83
2021/03/27 18:18:11;;;;;;;3.53;0.77;;;15.50;99.90;;;;;;5084918;28;20866;-83
2021/03/27 18:20:40;;;;;;;2.10;0.57;;;15.50;99.90;;;;;;5098970;28;20406;-83
2021/03/27 18:23:28;;;;;;;2.28;0.65;;;15.40;99.90;;;;;;5113062;28;20363;-83
2021/03/27 18:26:16;;;;;;;3.00;0.70;;;15.40;99.90;;;;;;5101181;28;20818;-83
2021/03/27 18:29:03;;;;;;;3.50;0.60;;;15.40;99.90;;;;;;5090699;28;20397;-83
2021/03/27 18:32:01;;;;;;;2.30;0.68;;;15.30;99.90;;;;;;5102149;28;20384;-83
2021/03/27 18:34:46;;;;;;;4.00;0.60;;;15.20;99.90;;;;;;5104654;28;20506;-83
2021/03/27 18:37:44;;;;;;;2.20;0.77;;;15.10;99.90;;;;;;5108106;28;20402;-83
2021/03/27 18:40:42;;;;;;;2.42;0.73;;;15.10;99.90;;;;;;5103598;28;20418;-83
2021/03/27 18:43:32;;;;;;;2.05;0.70;;;15.10;99.90;;;;;;5086457;28;20443;-83
2021/03/27 18:46:14;;;;;;;3.87;0.87;;;15.10;99.90;;;;;;5107324;28;20418;-83
2021/03/27 18:49:06;;;;;;;4.15;0.85;;;15.20;99.90;;;;;;5077834;28;20528;-82
2021/03/27 18:51:50;;;;;;;4.40;0.80;;;15.20;99.90;;;;;;5082121;28;20408;-82
2021/03/27 18:54:26;;;;;;;2.55;0.70;;;15.30;99.90;;;;;;5091374;28;20425;-83
2021/03/27 18:56:57;;;;;;;1.35;0.75;;;15.40;99.90;;;;;;5109558;28;20422;-83
2021/03/27 18:59:31;;;;;;;3.72;0.80;;;15.40;99.90;;;;;;5088439;28;20427;-82
2021/03/27 19:02:01;;;;;;;1.70;0.80;;;15.30;99.90;;;;;;5111406;28;20395;-82
2021/03/27 19:04:53;;;;;;;2.65;0.93;;;15.30;99.90;;;;;;5093639;28;20900;-83
2021/03/27 19:07:33;;;;;;;1.60;0.73;;;15.20;99.90;;;;;;5105063;28;20891;-83
2021/03/27 19:10:20;;;;;;;4.13;1.00;;;15.20;99.90;;;;;;5108238;28;20537;-82
2021/03/27 19:12:50;;;;;;;4.00;1.08;;;15.10;99.90;;;;;;5107314;28;20752;-83
2021/03/27 19:15:34;;;;;;;4.43;1.10;;;15.10;99.90;;;;;;5104524;28;20471;-84
2021/03/27 19:18:25;;;;;;;3.13;1.27;;;15.10;99.90;;;;;;5108633;28;20422;-83
2021/03/27 19:21:06;;;;;;;4.65;1.30;;;15.10;99.90;;;;;;5106860;28;21200;-82
2021/03/27 19:23:53;;;;;;;3.47;1.20;;;15.10;99.90;;;;;;5088127;28;20392;-83
2021/03/27 19:26:26;;;;;;;3.67;1.15;;;15.00;99.90;;;;;;5090352;28;20379;-82
2021/03/27 19:29:16;;;;;;;3.85;1.10;;;15.00;99.90;;;;;;5105168;28;20518;-83
2021/03/27 19:31:55;;;;;;;3.40;1.40;;;15.00;99.90;;;;;;5100770;28;20869;-83
2021/03/27 19:34:26;;;;;;;3.22;1.10;;;15.00;99.90;;;;;;5110974;28;20942;-84
2021/03/27 19:37:10;;;;;;;3.72;1.40;;;14.90;99.90;;;;;;5108775;28;20482;-82
2021/03/27 19:39:49;;;;;;;4.90;1.50;;;14.90;99.90;;;;;;5108983;28;20441;-83
2021/03/27 19:42:38;;;;;;;5.87;1.40;;;14.90;99.90;;;;;;5110083;28;20888;-83
2021/03/27 19:45:15;;;;;;;3.70;1.67;;;14.90;99.90;;;;;;5111464;28;20417;-83
2021/03/27 19:47:44;;;;;;;3.67;1.63;;;14.90;99.90;;;;;;5111267;28;20385;-83
2021/03/27 19:50:36;;;;;;;4.53;1.33;;;14.80;99.90;;;;;;5110342;28;20419;-83
2021/03/27 19:53:27;;;;;;;6.30;1.35;;;14.80;99.90;;;;;;5110072;28;20390;-83
2021/03/27 19:56:22;;;;;;;6.93;1.67;;;14.70;99.90;;;;;;5105736;28;20406;-82
2021/03/27 19:59:08;;;;;;;6.40;1.50;;;14.70;99.90;;;;;;5105846;28;20430;-83
2021/03/27 20:01:48;;;;;;;2.72;1.38;;;14.70;99.90;;;;;;5110423;28;20795;-83
2021/03/27 20:04:24;;;;;;;6.30;1.50;;;14.70;99.90;;;;;;5110322;28;21079;-83
2021/03/27 20:07:05;;;;;;;4.43;1.60;;;14.60;99.90;;;;;;5091575;28;20394;-83
2021/03/27 20:09:35;;;;;;;9.60;1.83;;;14.70;99.90;;;;;;5109811;28;20390;-83
2021/03/27 20:12:26;;;;;;;7.10;1.83;;;14.70;99.90;;;;;;5107986;28;20749;-82
2021/03/27 20:14:56;;;;;;;6.93;1.57;;;14.70;99.90;;;;;;5108417;28;20894;-82
2021/03/27 20:17:28;;;;;;;7.30;1.80;;;14.70;99.90;;;;;;5109847;28;20396;-82
2021/03/27 20:20:20;;;;;;;6.82;1.90;;;14.70;99.90;;;;;;5108659;28;20469;-82
2021/03/27 20:22:51;;;;;;;5.03;1.90;;;14.70;99.90;;;;;;5092751;28;20437;-83
2021/03/27 20:25:21;;;;;;;7.45;2.15;;;14.60;99.90;;;;;;5078058;28;20420;-82
2021/03/27 20:27:59;;;;;;;7.10;2.03;;;14.60;99.90;;;;;;5102205;28;20402;-82
2021/03/27 20:30:40;;;;;;;7.85;2.15;;;14.70;99.90;;;;;;5110591;28;20389;-84
2021/03/27 20:33:29;;;;;;;6.22;1.90;;;14.90;99.90;;;;;;5108443;28;20399;-82
2021/03/27 20:36:13;;;;;;;7.03;2.20;;;15.50;99.90;;;;;;5107407;28;20414;-82
2021/03/27 20:38:57;;;;;;;6.30;1.80;;;16.10;99.90;;;;;;5075245;28;20458;-82
2021/03/27 20:42:05;;;;;;;5.45;1.80;;;16.50;99.90;;;;;;5075337;28;20418;-82
2021/03/27 20:44:53;;;;;;;7.18;1.95;;;17.20;99.90;;;;;;5087002;28;20383;-82
2021/03/27 20:47:29;;;;;;;7.22;1.73;;;18.10;99.90;;;;;;5091423;28;20391;-87
2021/03/27 20:50:32;;;;;;;7.72;2.05;;;18.20;99.90;;;;;;5103648;28;20424;-83
2021/03/27 20:53:34;;;;;;;5.57;1.80;;;17.70;99.90;;;;;;5100881;28;20390;-83
2021/03/27 20:56:34;;;;;;;5.20;1.80;;;17.10;99.90;;;;;;5089345;28;20394;-83
2021/03/27 20:59:27;;;;;;;8.00;1.80;;;16.80;99.90;;;;;;5089990;28;20402;-85
2021/03/27 21:02:29;;;;;;;5.60;1.63;;;16.80;99.90;;;;;;5106549;28;20418;-83
2021/03/27 21:04:57;;;;;;;5.20;1.95;;;16.80;99.90;;;;;;5085569;28;20884;-84
2021/03/27 21:07:35;;;;;;;8.40;2.10;;;16.80;99.90;;;;;;5089292;28;20394;-84
2021/03/27 21:10:33;;;;;;;6.97;1.90;;;16.70;99.90;;;;;;5082459;28;20393;-85
2021/03/27 21:13:08;;;;;;;8.85;1.92;;;16.70;99.90;;;;;;5081389;28;20424;-84
2021/03/27 21:16:02;;;;;;;5.55;1.50;;;16.90;99.90;;;;;;5088439;28;20413;-83
2021/03/27 21:18:32;;;;;;;6.70;1.80;;;16.90;99.90;;;;;;5088206;28;20466;-83
2021/03/27 21:21:05;;;;;;;9.20;2.05;;;17.00;99.90;;;;;;5088964;28;20942;-86
2021/03/27 21:24:03;;;;;;;9.07;1.98;;;17.00;99.90;;;;;;5084522;28;20383;-85
2021/03/27 21:26:51;;;;;;;7.43;1.38;;;17.00;99.90;;;;;;5108234;28;20432;-83
2021/03/27 21:29:28;;;;;;;6.27;1.43;;;17.00;99.90;;;;;;5081620;28;20509;-83
2021/03/27 21:32:05;;;;;;;5.70;1.38;;;17.10;99.90;;;;;;5105644;28;20421;-83
2021/03/27 21:34:56;;;;;;;6.35;1.40;;;17.20;99.90;;;;;;5108234;28;20395;-83
2021/03/27 21:37:52;;;;;;;7.33;1.43;;;17.30;99.90;;;;;;5109828;28;20813;-83
2021/03/27 21:40:49;;;;;;;7.60;1.60;;;17.60;99.90;;;;;;5105634;28;20434;-84
2021/03/27 21:43:38;;;;;;;4.07;1.42;;;17.90;99.90;;;;;;5095750;28;20395;-85
2021/03/27 21:46:34;;;;;;;6.95;1.48;;;18.10;99.90;;;;;;5110015;28;20401;-85
2021/03/27 21:49:34;;;;;;;8.13;1.55;;;18.30;99.90;;;;;;5100087;28;20394;-83
2021/03/27 21:52:22;;;;;;;7.47;1.58;;;18.50;99.90;;;;;;5107340;28;20382;-84
2021/03/27 21:55:04;;;;;;;6.38;1.38;;;18.60;99.90;;;;;;5080928;28;20395;-84
2021/03/27 21:57:54;;;;;;;9.05;1.60;;;18.70;99.90;;;;;;5086659;28;20438;-82
2021/03/27 22:00:42;;;;;;;6.82;1.23;;;18.90;99.90;;;;;;5090755;28;20399;-84
2021/03/27 22:03:35;;;;;;;9.40;1.38;;;19.20;99.90;;;;;;5082306;28;20444;-83
2021/03/27 22:06:14;;;;;;;7.20;1.25;;;19.30;99.90;;;;;;5104359;28;20386;-83
2021/03/27 22:09:06;;;;;;;6.85;1.60;;;19.40;99.90;;;;;;5088824;28;20396;-83
2021/03/27 22:12:00;;;;;;;7.67;1.27;;;19.50;99.90;;;;;;5093213;28;20403;-85
2021/03/27 22:14:49;;;;;;;5.63;1.50;;;19.70;99.90;;;;;;5105696;28;20525;-84
2021/03/27 22:17:32;;;;;;;7.57;1.50;;;19.90;99.90;;;;;;5089851;28;20389;-84
2021/03/27 22:20:31;;;;;;;9.10;1.60;;;20.10;99.90;;;;;;5107231;28;20390;-84
2021/03/27 22:22:58;;;;;;;4.38;1.30;;;20.50;99.90;;;;;;5090098;28;20494;-84
2021/03/27 22:25:42;;;;;;;9.70;1.63;;;21.40;99.90;;;;;;5090210;28;20390;-83
2021/03/27 22:28:21;;;;;;;7.68;1.83;;;22.10;99.90;;;;;;5094733;28;20385;-83
2021/03/27 22:30:54;;;;;;;5.00;1.42;;;22.00;99.90;;;;;;5093973;28;20411;-84
2021/03/27 22:33:26;;;;;;;9.88;1.33;;;21.70;99.90;;;;;;5079404;28;20752;-84
2021/03/27 22:36:19;;;;;;;8.25;1.40;;;22.20;99.90;;;;;;5094438;28;20417;-84
2021/03/27 22:38:51;;;;;;;5.68;1.63;;;23.90;99.90;;;;;;5118523;28;21683;-85
2021/03/27 22:41:30;;;;;;;7.47;1.50;;;25.20;96.50;;;;;;5116420;28;20877;-85
2021/03/27 22:44:18;;;;;;;6.93;1.48;;;26.50;92.80;;;;;;5106441;28;20382;-85
2021/03/27 22:46:48;;;;;;;6.75;2.00;;;27.20;89.20;;;;;;5098238;28;20407;-84
2021/03/27 22:49:25;;;;;;;6.00;1.38;;;27.00;85.50;;;;;;5112991;28;20390;-83
2021/03/27 22:52:24;;;;;;;5.63;1.25;;;27.20;83.40;;;;;;5105460;28;20402;-84
2021/03/27 22:55:07;;;;;;;5.15;1.25;;;26.70;81.80;;;;;;5077211;28;20914;-84
2021/03/27 22:57:44;;;;;;;4.53;0.98;;;26.90;85.50;;;;;;5103697;28;20402;-84
2021/03/27 23:00:17;;;;;;;5.83;1.33;;;27.50;82.00;;;;;;5102251;28;20483;-83
2021/03/27 23:02:59;;;;;;;3.80;1.38;;;27.50;78.90;;;;;;5089572;28;20378;-84
2021/03/27 23:05:34;;;;;;;4.53;1.17;;;28.10;80.90;;;;;;5088380;28;20749;-84